Time;durP1;ratioP1;P1;durP2;ratioP2;P2;SDS_P1;SDS_P2;PMS_P1;PMS_P2;Temp;Humidity;BMP_temperature;BMP_pressure;BME280_temperature;BME280_humidity;BME280_pressure;Samples;Min_cycle;Max_cycle;Signal;HPM_P1;HPM_P2
2023/12/01 00:00:10;;;;;;;;;49.00;39.50;;;;;1.81;100.00;98063.78;6277428;20;2500297;-50
2023/12/01 00:02:39;;;;;;;;;59.50;42.50;;;;;1.75;100.00;98064.97;6280141;20;2860671;-52
2023/12/01 00:05:08;;;;;;;;;63.00;45.00;;;;;1.77;100.00;98063.09;6281768;20;2861774;-51
2023/12/01 00:07:38;;;;;;;;;44.00;33.67;;;;;1.73;100.00;98066.84;6281092;20;2881624;-48
2023/12/01 00:10:12;;;;;;;;;54.00;43.00;;;;;1.69;100.00;98070.59;6310366;20;2852482;-49
2023/12/01 00:12:42;;;;;;;;;52.33;44.67;;;;;1.77;100.00;98073.69;6279642;20;2873236;-51
2023/12/01 00:15:12;;;;;;;;;58.33;42.67;;;;;1.70;100.00;98067.84;6312074;20;2861257;-50
2023/12/01 00:17:41;;;;;;;;;48.67;40.33;;;;;1.70;100.00;98081.06;6313410;20;2870546;-49
2023/12/01 00:20:11;;;;;;;;;58.50;43.50;;;;;1.49;100.00;98080.38;6309570;20;2855587;-51
2023/12/01 00:22:41;;;;;;;;;60.67;45.00;;;;;1.59;100.00;98085.22;6279100;20;2860694;-52
2023/12/01 00:25:10;;;;;;;;;62.67;47.67;;;;;1.63;100.00;98092.91;6312648;20;2875282;-49
2023/12/01 00:27:41;;;;;;;;;57.00;44.00;;;;;1.58;100.00;98088.78;6312304;20;3614948;-49
2023/12/01 00:30:11;;;;;;;;;59.33;43.00;;;;;1.62;100.00;98095.63;6310491;20;3615902;-49
2023/12/01 00:32:41;;;;;;;;;52.33;42.67;;;;;1.74;100.00;98092.38;6310101;20;2860657;-51
2023/12/01 00:35:10;;;;;;;;;52.50;40.50;;;;;1.73;100.00;98088.00;6311923;20;3490857;-49
2023/12/01 00:37:39;;;;;;;;;51.00;42.50;;;;;1.87;100.00;98100.50;6309795;20;2855701;-52
2023/12/01 00:40:10;;;;;;;;;48.50;40.50;;;;;1.79;100.00;98108.00;6284222;20;2865897;-49
2023/12/01 00:42:42;;;;;;;;;56.00;41.67;;;;;1.63;100.00;98115.84;6284205;20;2880611;-48
2023/12/01 00:45:12;;;;;;;;;46.67;41.67;;;;;1.68;100.00;98127.06;6315698;20;2877438;-48
2023/12/01 00:47:42;;;;;;;;;60.67;43.33;;;;;1.68;100.00;98116.47;6316408;20;3616003;-49
2023/12/01 00:50:10;;;;;;;;;50.00;42.50;;;;;1.56;100.00;98127.69;6318579;20;2862777;-49
2023/12/01 00:52:40;;;;;;;;;49.33;42.00;;;;;1.60;100.00;98130.09;6284101;20;2873322;-47
2023/12/01 00:55:10;;;;;;;;;54.00;44.00;;;;;1.44;100.00;98111.50;6313112;20;2866770;-49
2023/12/01 00:57:40;;;;;;;;;48.00;40.00;;;;;1.60;100.00;98129.25;6315991;20;3613894;-47
2023/12/01 01:00:10;;;;;;;;;48.50;40.50;;;;;1.72;100.00;98126.00;6313610;20;2854460;-49
2023/12/01 01:02:40;;;;;;;;;47.67;40.33;;;;;1.67;100.00;98128.00;6284050;20;2875363;-48
2023/12/01 01:05:09;;;;;;;;;39.00;31.50;;;;;1.56;100.00;98138.28;6316878;20;2841918;-48
2023/12/01 01:07:38;;;;;;;;;64.00;49.00;;;;;1.67;100.00;98122.72;6286516;20;2871145;-49
2023/12/01 01:10:07;;;;;;;;;47.50;42.00;;;;;1.71;100.00;98132.19;6284531;20;2867055;-49
2023/12/01 01:12:36;;;;;;;;;58.50;45.00;;;;;1.60;100.00;98135.38;6285588;20;2863837;-49
2023/12/01 01:15:06;;;;;;;;;63.00;48.00;;;;;1.74;100.00;98132.91;6285232;20;2866906;-48
2023/12/01 01:17:34;;;;;;;;;60.50;43.00;;;;;1.65;100.00;98138.66;6282738;20;2508570;-48
2023/12/01 01:20:04;;;;;;;;;57.00;42.00;;;;;1.75;100.00;98131.97;6284654;20;2869482;-48
2023/12/01 01:22:33;;;;;;;;;37.50;36.00;;;;;1.74;100.00;98117.03;6284127;20;2879469;-49
2023/12/01 01:25:04;;;;;;;;;53.00;44.50;;;;;1.41;100.00;98095.78;6284378;20;2842082;-50
2023/12/01 01:27:33;;;;;;;;;48.00;42.50;;;;;1.53;100.00;98113.69;6283866;20;2850441;-48
2023/12/01 01:30:03;;;;;;;;;50.50;42.00;;;;;1.73;100.00;98117.09;6285020;20;2869110;-49
2023/12/01 01:32:33;;;;;;;;;54.33;40.00;;;;;1.68;100.00;98122.63;6282628;20;2872314;-49
2023/12/01 01:35:02;;;;;;;;;63.00;46.50;;;;;1.67;100.00;98120.06;6314953;20;2863943;-47
2023/12/01 01:37:31;;;;;;;;;47.50;38.00;;;;;1.75;100.00;98116.09;6283304;20;2871292;-50
2023/12/01 01:40:00;;;;;;;;;51.00;40.50;;;;;1.41;100.00;98116.94;6284587;20;2876395;-49
2023/12/01 01:42:29;;;;;;;;;58.00;44.00;;;;;1.64;100.00;98125.53;6280128;20;2852488;-49
2023/12/01 01:44:58;;;;;;;;;51.00;40.50;;;;;1.53;100.00;98118.97;6284426;20;2864893;-51
2023/12/01 01:47:29;;;;;;;;;51.00;40.00;;;;;1.72;100.00;98129.47;6283613;20;3613926;-48
2023/12/01 01:49:59;;;;;;;;;51.33;41.00;;;;;1.33;100.00;98119.09;6317665;20;2879457;-50
2023/12/01 01:52:28;;;;;;;;;42.50;37.00;;;;;1.66;100.00;98107.75;6311099;20;2865944;-48
2023/12/01 01:54:58;;;;;;;;;45.67;40.67;;;;;1.69;100.00;98126.16;6279810;20;2871342;-48
2023/12/01 01:57:28;;;;;;;;;55.50;43.00;;;;;1.71;100.00;98114.56;6312199;20;2858649;-49
2023/12/01 01:59:58;;;;;;;;;55.00;40.33;;;;;1.62;100.00;98116.81;6279981;20;2886927;-47
2023/12/01 02:02:27;;;;;;;;;57.33;35.33;;;;;1.60;100.00;98123.94;6314654;20;2881595;-52
2023/12/01 02:04:56;;;;;;;;;54.00;44.00;;;;;1.45;100.00;98115.88;6315155;20;2845060;-48
2023/12/01 02:07:27;;;;;;;;;98.33;74.33;;;;;1.26;100.00;98115.06;6283703;20;3675253;-51
2023/12/01 02:09:57;;;;;;;;;102.33;86.67;;;;;1.14;100.00;98105.94;6279375;20;3656602;-46
2023/12/01 02:12:26;;;;;;;;;66.00;50.50;;;;;1.07;100.00;98129.16;6280738;20;2859649;-50
2023/12/01 02:14:56;;;;;;;;;56.67;43.67;;;;;1.49;100.00;98124.50;6283814;20;2883637;-50
2023/12/01 02:17:26;;;;;;;;;103.00;86.00;;;;;1.22;100.00;98113.50;6313802;20;3683559;-49
2023/12/01 02:19:55;;;;;;;;;51.00;43.33;;;;;1.48;100.00;98126.28;6315319;20;2864867;-46
2023/12/01 02:22:27;;;;;;;;;50.00;40.33;;;;;1.51;100.00;98131.41;6312376;20;2864860;-49
2023/12/01 02:24:57;;;;;;;;;58.67;43.00;;;;;1.44;100.00;98126.50;6314908;20;3613982;-47
2023/12/01 02:27:26;;;;;;;;;57.00;44.00;;;;;1.70;100.00;98146.38;6311903;20;2864974;-50
2023/12/01 02:29:54;;;;;;;;;67.00;48.00;;;;;1.61;100.00;98146.84;6279548;20;2492955;-48
2023/12/01 02:32:23;;;;;;;;;56.00;44.50;;;;;1.38;100.00;98155.91;6280890;20;2844087;-47
2023/12/01 02:34:52;;;;;;;;;53.50;42.50;;;;;1.40;100.00;98159.34;6283917;20;2862907;-49
2023/12/01 02:37:21;;;;;;;;;57.00;45.50;;;;;1.42;100.00;98158.34;6283610;20;2847142;-50
2023/12/01 02:39:51;;;;;;;;;56.00;42.00;;;;;1.73;100.00;98168.22;6284518;20;3624199;-50
2023/12/01 02:42:20;;;;;;;;;53.00;43.00;;;;;1.76;100.00;98156.63;6313797;20;2850389;-50
2023/12/01 02:44:49;;;;;;;;;43.50;32.00;;;;;1.77;100.00;98145.13;6283131;20;2864878;-48
2023/12/01 02:47:17;;;;;;;;;67.00;54.00;;;;;1.75;100.00;98166.34;6279545;20;2491965;-49
2023/12/01 02:49:46;;;;;;;;;50.00;42.00;;;;;1.58;100.00;98169.00;6283192;20;2857537;-48
2023/12/01 02:52:13;;;;;;;;;68.50;54.50;;;;;1.31;100.00;98155.34;6277679;20;2493126;-49
2023/12/01 02:54:43;;;;;;;;;51.00;42.00;;;;;1.45;100.00;98152.00;6281937;20;2862878;-51
2023/12/01 02:57:12;;;;;;;;;46.00;41.00;;;;;1.51;100.00;98163.16;6312407;20;2848746;-49
2023/12/01 02:59:41;;;;;;;;;51.50;40.50;;;;;1.27;100.00;98153.78;6281386;20;2877339;-50
2023/12/01 03:02:11;;;;;;;;;63.00;46.00;;;;;1.19;100.00;98151.50;6278487;20;2872285;-49
2023/12/01 03:04:40;;;;;;;;;66.00;48.50;;;;;1.18;100.00;98141.00;6318372;20;2879442;-47
2023/12/01 03:07:09;;;;;;;;;53.67;40.33;;;;;1.47;100.00;98140.41;6282819;20;2878622;-49
2023/12/01 03:09:39;;;;;;;;;70.67;51.33;;;;;1.03;100.00;98132.91;6313051;20;2898251;-49
2023/12/01 03:12:08;;;;;;;;;56.50;42.00;;;;;1.45;100.00;98121.16;6313111;20;2871118;-48
2023/12/01 03:14:39;;;;;;;;;60.00;46.00;;;;;1.54;100.00;98111.91;6281717;20;2861737;-49
2023/12/01 03:17:28;;;;;;;;;53.00;45.00;;;;;1.34;100.00;98114.66;6313374;20;2854634;-50
2023/12/01 03:19:58;;;;;;;;;51.00;40.50;;;;;1.69;100.00;98123.50;6279193;20;2875286;-49
2023/12/01 03:22:28;;;;;;;;;45.33;37.00;;;;;1.45;100.00;98142.31;6279817;20;2867049;-49
2023/12/01 03:24:57;;;;;;;;;65.50;49.50;;;;;1.73;100.00;98151.50;6311987;20;2873227;-47
2023/12/01 03:27:27;;;;;;;;;49.67;41.67;;;;;1.68;100.00;98135.00;6279685;20;2874229;-52
2023/12/01 03:29:57;;;;;;;;;49.33;39.67;;;;;1.79;100.00;98145.91;6311636;20;3626296;-48
2023/12/01 03:32:25;;;;;;;;;42.50;36.00;;;;;1.79;100.00;98135.34;6308759;20;2500309;-47
2023/12/01 03:34:54;;;;;;;;;45.00;38.50;;;;;1.91;100.00;98149.72;6281995;20;2864926;-43
2023/12/01 03:37:24;;;;;;;;;49.33;40.67;;;;;1.25;100.00;98131.84;6280541;20;2864025;-43
2023/12/01 03:39:53;;;;;;;;;76.67;56.00;;;;;1.66;100.00;98139.50;6313525;20;2890128;-44
2023/12/01 03:42:23;;;;;;;;;81.33;61.33;;;;;1.66;100.00;98155.38;6311015;20;3644133;-43
2023/12/01 03:44:53;;;;;;;;;82.67;64.67;;;;;1.49;100.00;98157.06;6311335;20;3632682;-43
2023/12/01 03:47:23;;;;;;;;;93.33;71.33;;;;;1.17;100.00;98131.38;6310429;20;3661755;-43
2023/12/01 03:49:53;;;;;;;;;79.33;60.33;;;;;1.67;100.00;98141.22;6311902;20;3622184;-45
2023/12/01 03:52:22;;;;;;;;;74.33;58.33;;;;;1.86;100.00;98147.28;6311697;20;2875373;-45
2023/12/01 03:54:52;;;;;;;;;75.67;59.00;;;;;1.44;100.00;98159.09;6312819;20;2879649;-43
2023/12/01 03:57:21;;;;;;;;;64.00;48.50;;;;;1.10;100.00;98133.44;6311401;20;2867955;-43
2023/12/01 03:59:50;;;;;;;;;60.00;46.50;;;;;1.72;100.00;98145.34;6281326;20;2864838;-44
2023/12/01 04:02:19;;;;;;;;;44.00;40.50;;;;;1.65;100.00;98157.16;6279096;20;2866986;-43
2023/12/01 04:04:51;;;;;;;;;66.00;49.00;;;;;1.30;100.00;98143.91;6282728;20;2866957;-42
2023/12/01 04:07:20;;;;;;;;;61.00;48.50;;;;;1.63;100.00;98171.41;6311669;20;2860683;-43
2023/12/01 04:09:50;;;;;;;;;68.33;50.67;;;;;0.93;100.00;98143.97;6281833;20;2885742;-44
2023/12/01 04:12:19;;;;;;;;;62.67;48.33;;;;;1.26;100.00;98146.78;6310249;20;2858633;-43
2023/12/01 04:14:49;;;;;;;;;64.67;49.67;;;;;1.33;100.00;98150.84;6311220;20;2862891;-43
2023/12/01 04:17:21;;;;;;;;;63.67;44.67;;;;;1.12;100.00;98138.66;6312719;20;3627425;-43
2023/12/01 04:19:49;;;;;;;;;63.50;48.00;;;;;1.54;100.00;98157.72;6310050;20;2492983;-43
2023/12/01 04:22:18;;;;;;;;;67.00;51.50;;;;;1.07;100.00;98115.09;6279533;20;2864888;-44
2023/12/01 04:24:48;;;;;;;;;59.33;43.00;;;;;1.59;100.00;98119.59;6278099;20;2870165;-43
2023/12/01 04:27:17;;;;;;;;;56.50;45.00;;;;;1.74;100.00;98151.44;6311179;20;2831550;-43
2023/12/01 04:29:47;;;;;;;;;69.33;49.67;;;;;1.67;100.00;98159.75;6278814;20;2879545;-43
2023/12/01 04:32:15;;;;;;;;;68.00;56.00;;;;;1.38;100.00;98146.19;6310329;20;2871110;-43
2023/12/01 04:34:45;;;;;;;;;75.00;54.33;;;;;1.74;100.00;98147.94;6281184;20;2889940;-43
2023/12/01 04:37:15;;;;;;;;;90.00;64.33;;;;;1.15;100.00;98149.09;6310631;20;3645070;-43
2023/12/01 04:39:45;;;;;;;;;69.00;54.00;;;;;1.23;100.00;98125.78;6312235;20;2879567;-42
2023/12/01 04:42:15;;;;;;;;;72.33;49.33;;;;;1.39;100.00;98131.16;6309993;20;2881618;-43
2023/12/01 04:44:45;;;;;;;;;63.67;51.67;;;;;1.09;100.00;98119.38;6307713;20;2872305;-43
2023/12/01 04:47:13;;;;;;;;;60.50;47.00;;;;;1.44;100.00;98148.50;6312167;20;2853396;-43
2023/12/01 04:49:42;;;;;;;;;65.50;49.00;;;;;1.65;100.00;98153.69;6280054;20;2870216;-43
2023/12/01 04:52:10;;;;;;;;;63.50;48.50;;;;;1.15;100.00;98142.00;6278645;20;2873187;-44
2023/12/01 04:54:39;;;;;;;;;63.50;48.00;;;;;1.69;100.00;98153.44;6278252;20;2865007;-43
2023/12/01 04:57:09;;;;;;;;;67.00;52.33;;;;;1.61;100.00;98149.50;6279602;20;2869032;-43
2023/12/01 04:59:39;;;;;;;;;80.33;62.00;;;;;1.19;100.00;98145.38;6309031;20;2885931;-42
2023/12/01 05:02:08;;;;;;;;;65.50;54.50;;;;;1.35;100.00;98145.50;6309438;20;2881561;-42
2023/12/01 05:04:37;;;;;;;;;75.67;57.67;;;;;1.30;100.00;98148.34;6279456;20;3629411;-43
2023/12/01 05:07:07;;;;;;;;;89.67;66.00;;;;;1.28;100.00;98145.75;6310549;20;3647262;-42
2023/12/01 05:09:37;;;;;;;;;83.67;62.33;;;;;1.51;100.00;98165.81;6311322;20;3653573;-43
2023/12/01 05:12:07;;;;;;;;;80.33;59.00;;;;;1.44;100.00;98145.03;6308785;20;3648233;-43
2023/12/01 05:14:37;;;;;;;;;85.00;64.00;;;;;1.48;100.00;98154.53;6310854;20;3644048;-42
2023/12/01 05:17:07;;;;;;;;;83.33;62.67;;;;;1.28;100.00;98144.91;6311273;20;3645189;-42
2023/12/01 05:19:35;;;;;;;;;62.00;47.00;;;;;1.12;100.00;98128.09;6306160;20;2492050;-43
2023/12/01 05:22:06;;;;;;;;;76.33;54.67;;;;;1.42;100.00;98125.72;6278285;20;3656692;-43
2023/12/01 05:24:36;;;;;;;;;71.33;55.67;;;;;1.28;100.00;98126.41;6306679;20;3638946;-44
2023/12/01 05:27:08;;;;;;;;;68.33;54.00;;;;;1.94;100.00;98138.97;6309223;20;2881614;-42
2023/12/01 05:29:38;;;;;;;;;68.00;54.50;;;;;1.70;100.00;98125.19;6315646;20;3496106;-42
2023/12/01 05:32:08;;;;;;;;;84.00;62.00;;;;;1.49;100.00;98122.69;6313008;20;3664864;-43
2023/12/01 05:34:37;;;;;;;;;68.00;51.50;;;;;1.44;100.00;98116.78;6312551;20;2855606;-43
2023/12/01 05:37:06;;;;;;;;;69.33;52.33;;;;;1.28;100.00;98102.63;6282551;20;2876367;-43
2023/12/01 05:39:35;;;;;;;;;67.00;51.50;;;;;1.14;100.00;98099.81;6313235;20;2877382;-42
2023/12/01 05:42:05;;;;;;;;;54.00;43.00;;;;;1.27;100.00;98108.84;6281095;20;2876444;-43
2023/12/01 05:44:33;;;;;;;;;60.50;49.50;;;;;1.53;100.00;98136.66;6312957;20;2496256;-43
2023/12/01 05:47:03;;;;;;;;;66.67;48.00;;;;;1.72;100.00;98139.22;6282339;20;2870165;-43
2023/12/01 05:49:33;;;;;;;;;62.00;47.00;;;;;1.72;100.00;98139.22;6314545;20;2866324;-42
2023/12/01 05:52:02;;;;;;;;;68.00;47.00;;;;;1.59;100.00;98144.25;6314987;20;2876325;-42
2023/12/01 05:54:31;;;;;;;;;66.00;51.00;;;;;1.81;100.00;98146.66;6280874;20;2867978;-43
2023/12/01 05:57:01;;;;;;;;;71.33;54.33;;;;;1.51;100.00;98142.00;6282085;20;2892172;-44
2023/12/01 05:59:31;;;;;;;;;65.50;48.50;;;;;1.50;100.00;98137.66;6314410;20;2877353;-43
2023/12/01 06:02:10;;;;;;;;;64.67;48.00;;;;;1.05;100.00;98133.69;6282868;20;2881533;-43
2023/12/01 06:04:40;;;;;;;;;61.00;46.00;;;;;1.34;100.00;98149.91;6315056;20;2874259;-44
2023/12/01 06:07:10;;;;;;;;;75.33;51.67;;;;;1.62;100.00;98165.25;6314891;20;2880564;-44
2023/12/01 06:09:39;;;;;;;;;63.00;51.00;;;;;1.69;100.00;98171.97;6314330;20;2872216;-45
2023/12/01 06:12:07;;;;;;;;;68.50;49.50;;;;;1.41;100.00;98161.88;6279274;20;2500359;-44
2023/12/01 06:14:36;;;;;;;;;63.50;48.00;;;;;1.21;100.00;98159.34;6282216;20;2871157;-42
2023/12/01 06:17:07;;;;;;;;;57.00;47.00;;;;;1.21;100.00;98160.22;6280618;20;2847274;-43
2023/12/01 06:19:36;;;;;;;;;40.00;39.50;;;;;1.74;100.00;98150.59;6283470;20;2854454;-42
2023/12/01 06:22:04;;;;;;;;;60.00;47.00;;;;;1.36;100.00;98153.31;6281795;20;2856623;-42
2023/12/01 06:24:34;;;;;;;;;67.33;48.33;;;;;1.24;100.00;98140.72;6278371;20;3633642;-43
2023/12/01 06:27:04;;;;;;;;;64.67;48.33;;;;;1.52;100.00;98151.63;6308183;20;2876469;-44
2023/12/01 06:29:34;;;;;;;;;63.00;47.67;;;;;1.20;100.00;98144.44;6309021;20;2876554;-42
2023/12/01 06:32:05;;;;;;;;;60.67;46.00;;;;;1.15;100.00;98151.72;6310832;20;2860735;-43
2023/12/01 06:34:34;;;;;;;;;63.67;46.67;;;;;1.21;100.00;98154.06;6312952;20;2867034;-43
2023/12/01 06:37:04;;;;;;;;;54.33;43.33;;;;;1.82;100.00;98161.63;6311434;20;2877388;-44
2023/12/01 06:39:34;;;;;;;;;68.00;45.67;;;;;1.83;100.00;98165.97;6314526;20;2868005;-42
2023/12/01 06:42:04;;;;;;;;;53.33;43.67;;;;;1.48;100.00;98163.31;6310712;20;2862909;-45
2023/12/01 06:44:34;;;;;;;;;62.33;46.33;;;;;1.60;100.00;98160.97;6311375;20;3620074;-44
2023/12/01 06:47:03;;;;;;;;;60.00;45.50;;;;;2.05;100.00;98180.75;6313182;20;2866949;-45
2023/12/01 06:49:32;;;;;;;;;54.00;44.33;;;;;2.11;100.00;98186.59;6283074;20;2855492;-44
2023/12/01 06:52:02;;;;;;;;;57.67;40.33;;;;;2.03;100.00;98170.25;6312977;20;2863838;-46
2023/12/01 06:54:32;;;;;;;;;62.67;47.00;;;;;1.53;100.00;98158.66;6312082;20;2874344;-45
2023/12/01 06:57:01;;;;;;;;;56.00;42.50;;;;;1.66;100.00;98187.13;6311509;20;2867041;-43
2023/12/01 06:59:31;;;;;;;;;65.00;44.67;;;;;1.24;100.00;98180.38;6282064;20;2866982;-44
2023/12/01 07:02:00;;;;;;;;;67.50;52.00;;;;;1.15;100.00;98164.94;6309961;20;2880527;-45
2023/12/01 07:04:32;;;;;;;;;55.50;44.00;;;;;1.70;100.00;98175.47;6283959;20;2844039;-44
2023/12/01 07:07:03;;;;;;;;;52.67;40.00;;;;;1.89;100.00;98180.69;6281155;20;2861801;-45
2023/12/01 07:09:32;;;;;;;;;60.67;44.00;;;;;1.36;100.00;98178.91;6314957;20;3607539;-45
2023/12/01 07:12:06;;;;;;;;;63.00;48.50;;;;;1.57;100.00;98172.56;6311793;20;2869043;-45
2023/12/01 07:14:36;;;;;;;;;64.50;50.00;;;;;1.82;100.00;98166.03;6282399;20;2866944;-44
2023/12/01 07:17:05;;;;;;;;;65.50;54.50;;;;;1.43;100.00;98170.63;6280256;20;2869167;-43
2023/12/01 07:19:36;;;;;;;;;25.33;16.67;;;;;1.26;100.00;98174.09;6283585;20;3575236;-44
2023/12/01 07:22:06;;;;;;;;;66.33;51.67;;;;;1.48;100.00;98183.63;6309444;20;2873386;-46
2023/12/01 07:24:35;;;;;;;;;72.50;52.50;;;;;1.89;100.00;98178.88;6313950;20;2877364;-45
2023/12/01 07:27:04;;;;;;;;;65.50;51.00;;;;;1.98;100.00;98175.78;6279841;20;2871225;-44
2023/12/01 07:29:32;;;;;;;;;70.00;51.50;;;;;1.71;100.00;98163.94;6278313;20;2493006;-44
2023/12/01 07:32:02;;;;;;;;;66.00;49.00;;;;;1.90;100.00;98170.03;6280103;20;2860702;-45
2023/12/01 07:34:32;;;;;;;;;73.67;54.67;;;;;1.90;100.00;98188.56;6311957;20;2888043;-43
2023/12/01 07:37:10;;;;;;;;;70.67;54.00;;;;;1.96;100.00;98190.88;6311880;20;2883795;-45
2023/12/01 07:39:39;;;;;;;;;65.50;52.50;;;;;1.84;100.00;98185.34;6313320;20;2861799;-44
2023/12/01 07:42:08;;;;;;;;;68.67;49.67;;;;;1.94;100.00;98192.75;6279589;20;2908663;-45
2023/12/01 07:44:37;;;;;;;;;64.00;49.50;;;;;1.77;100.00;98194.56;6306864;20;2498321;-44
2023/12/01 07:47:08;;;;;;;;;62.50;52.00;;;;;1.75;100.00;98191.97;6281159;20;2865930;-45
2023/12/01 07:49:38;;;;;;;;;71.00;49.00;;;;;1.62;100.00;98196.16;6280816;20;2879524;-44
2023/12/01 07:52:08;;;;;;;;;72.00;48.33;;;;;1.71;100.00;98206.28;6281168;20;2885849;-46
2023/12/01 07:54:38;;;;;;;;;56.00;47.00;;;;;1.74;100.00;98216.72;6311349;20;2861789;-46
2023/12/01 07:57:06;;;;;;;;;59.00;47.00;;;;;1.81;100.00;98211.97;6276029;20;2487874;-46
2023/12/01 07:59:36;;;;;;;;;66.50;50.00;;;;;1.17;100.00;98197.47;6279630;20;2883607;-42
2023/12/01 08:02:06;;;;;;;;;51.33;42.67;;;;;1.32;100.00;98188.78;6280337;20;3618025;-48
2023/12/01 08:04:36;;;;;;;;;69.00;54.67;;;;;0.91;100.00;98178.38;6313113;20;2869024;-43
2023/12/01 08:07:07;;;;;;;;;115.00;104.00;;;;;1.19;100.00;98198.25;6311896;20;3695090;-44
2023/12/01 08:09:37;;;;;;;;;56.50;44.50;;;;;1.31;100.00;98216.16;6311089;20;2863979;-44
2023/12/01 08:12:07;;;;;;;;;63.50;44.50;;;;;1.81;100.00;98228.69;6281254;20;2865946;-45
2023/12/01 08:14:36;;;;;;;;;62.00;51.50;;;;;1.61;100.00;98223.56;6279143;20;2866975;-43
2023/12/01 08:17:06;;;;;;;;;81.00;62.00;;;;;1.56;100.00;98222.91;6280209;20;3640891;-45
2023/12/01 08:19:35;;;;;;;;;79.33;60.00;;;;;1.72;100.00;98219.44;6310926;20;3630522;-46
2023/12/01 08:22:05;;;;;;;;;83.25;63.00;;;;;1.57;100.00;98211.41;6313325;20;3648254;-45
2023/12/01 08:24:35;;;;;;;;;91.67;64.00;;;;;1.27;100.00;98235.75;6311632;20;3659628;-44
2023/12/01 08:27:10;;;;;;;;;71.33;50.67;;;;;1.95;100.00;98255.34;6275417;20;2892123;-44
2023/12/01 08:29:40;;;;;;;;;69.00;53.00;;;;;1.08;100.00;98244.53;6309854;20;2875317;-43
2023/12/01 08:32:12;;;;;;;;;76.67;56.67;;;;;1.68;100.00;98254.91;6310118;20;3639864;-45
2023/12/01 08:34:42;;;;;;;;;77.67;58.67;;;;;1.86;100.00;98263.72;6310866;20;2890079;-45
2023/12/01 08:37:12;;;;;;;;;95.67;70.33;;;;;1.47;100.00;98255.94;6311407;20;3667977;-44
2023/12/01 08:39:51;;;;;;;;;92.67;68.00;;;;;1.03;100.00;98254.47;6282199;20;3635817;-45
2023/12/01 08:42:21;;;;;;;;;70.67;56.00;;;;;1.52;100.00;98289.16;6310451;20;3617020;-45
2023/12/01 08:44:51;;;;;;;;;75.33;59.33;;;;;1.36;100.00;98285.53;6312962;20;2879445;-44
2023/12/01 08:47:21;;;;;;;;;73.00;56.50;;;;;1.06;100.00;98270.16;6310262;20;2492053;-43
2023/12/01 08:49:51;;;;;;;;;89.33;68.67;;;;;1.33;100.00;98259.25;6281038;20;3643996;-44
2023/12/01 08:52:19;;;;;;;;;61.00;48.00;;;;;1.03;100.00;98262.38;6311348;20;2865421;-45
2023/12/01 08:54:49;;;;;;;;;74.00;55.00;;;;;1.05;100.00;98260.53;6282216;20;2878540;-45
2023/12/01 08:57:18;;;;;;;;;68.50;52.00;;;;;1.35;100.00;98257.38;6310094;20;2870102;-47
2023/12/01 08:59:49;;;;;;;;;48.33;42.33;;;;;1.17;100.00;98252.97;6280462;20;2871252;-48
2023/12/01 09:02:38;;;;;;;;;87.00;68.33;;;;;1.27;100.00;98255.09;6317288;20;3630494;-48
2023/12/01 09:05:09;;;;;;;;;73.00;55.00;;;;;1.33;100.00;98253.94;6318232;20;2873285;-49
2023/12/01 09:07:39;;;;;;;;;65.67;47.67;;;;;1.10;100.00;98232.09;6317804;20;2881586;-47
2023/12/01 09:10:09;;;;;;;;;63.00;45.00;;;;;1.45;100.00;98226.06;6318240;20;2873363;-46
2023/12/01 09:12:38;;;;;;;;;60.00;49.00;;;;;1.21;100.00;98230.72;6315938;20;2857249;-49
2023/12/01 09:15:07;;;;;;;;;55.00;44.00;;;;;1.00;100.00;98245.78;6275479;20;2493037;-47
2023/12/01 09:17:35;;;;;;;;;60.00;48.00;;;;;1.14;100.00;98237.25;6289223;20;2851367;-47
2023/12/01 09:20:08;;;;;;;;;60.33;42.33;;;;;1.16;100.00;98235.38;6283344;20;3620128;-49
2023/12/01 09:22:37;;;;;;;;;49.00;39.00;;;;;1.01;100.00;98232.53;6311824;20;2863867;-49
2023/12/01 09:25:08;;;;;;;;;53.67;42.67;;;;;1.30;100.00;98252.31;6285635;20;2862936;-51
2023/12/01 09:27:41;;;;;;;;;46.33;40.33;;;;;1.87;100.00;98252.22;6316310;20;2865997;-46
2023/12/01 09:30:16;;;;;;;;;58.67;44.33;;;;;1.76;100.00;98243.94;6318343;20;2887885;-48
2023/12/01 09:32:47;;;;;;;;;77.00;57.67;;;;;1.67;100.00;98247.06;6315954;20;3641956;-48
2023/12/01 09:35:19;;;;;;;;;49.50;44.50;;;;;1.98;100.00;98244.59;6317342;20;2858637;-49
2023/12/01 09:38:08;;;;;;;;;62.00;49.50;;;;;2.13;100.00;98242.09;6286000;20;2856573;-49
2023/12/01 09:40:42;;;;;;;;;62.50;47.50;;;;;1.97;100.00;98239.38;6285460;20;2869070;-49
2023/12/01 09:43:20;;;;;;;;;72.00;57.00;;;;;1.94;100.00;98227.16;6284105;20;2869140;-48
2023/12/01 09:45:52;;;;;;;;;65.50;47.00;;;;;1.59;100.00;98228.06;6285539;20;2861793;-49
2023/12/01 09:48:22;;;;;;;;;86.00;65.50;;;;;1.35;100.00;98230.09;6286668;20;3536693;-44
2023/12/01 09:50:52;;;;;;;;;94.33;68.00;;;;;1.43;100.00;98212.06;6312070;20;3665880;-47
2023/12/01 09:53:22;;;;;;;;;75.67;59.33;;;;;1.96;100.00;98222.66;6315959;20;3628394;-46
2023/12/01 09:55:52;;;;;;;;;82.67;65.00;;;;;2.15;100.00;98232.31;6313057;20;3647135;-46
2023/12/01 09:58:24;;;;;;;;;57.67;42.33;;;;;1.08;100.00;98204.91;6310757;20;2867464;-47
2023/12/01 10:00:56;;;;;;;;;53.00;39.67;;;;;1.18;100.00;98217.66;6314108;20;3641002;-48
2023/12/01 10:03:27;;;;;;;;;43.50;39.00;;;;;1.33;100.00;98213.44;6315271;20;2859653;-50
2023/12/01 10:05:58;;;;;;;;;10.00;1.00;;;;;1.04;100.00;98211.25;6284878;20;2761731;-48
2023/12/01 10:08:28;;;;;;;;;44.67;39.67;;;;;1.19;100.00;98192.97;6284289;20;2873229;-51
2023/12/01 10:10:58;;;;;;;;;44.00;35.50;;;;;1.19;100.00;98204.38;6315511;20;2869127;-52
2023/12/01 10:13:40;;;;;;;;;48.00;40.00;;;;;1.39;100.00;98206.06;6279274;20;2875410;-48
2023/12/01 10:16:09;;;;;;;;;43.50;38.00;;;;;1.31;100.00;98187.91;6312876;20;2866971;-49
2023/12/01 10:18:38;;;;;;;;;44.00;40.00;;;;;1.97;100.00;98203.19;6281611;20;2871118;-48
2023/12/01 10:21:08;;;;;;;;;47.67;35.00;;;;;1.99;100.00;98195.16;6283281;20;3633617;-52
2023/12/01 10:23:37;;;;;;;;;39.00;35.00;;;;;1.32;100.00;98188.78;6315027;20;2862815;-51
2023/12/01 10:26:09;;;;;;;;;49.67;38.67;;;;;1.52;100.00;98185.16;6281768;20;3628399;-52
2023/12/01 10:28:43;;;;;;;;;63.00;46.50;;;;;1.15;100.00;98171.09;6315274;20;2493024;-48
2023/12/01 10:31:15;;;;;;;;;64.00;53.50;;;;;1.60;100.00;98176.84;6284875;20;2862816;-51
2023/12/01 10:33:48;;;;;;;;;60.00;43.50;;;;;1.74;100.00;98164.66;6283792;20;2856520;-52
2023/12/01 10:36:20;;;;;;;;;48.33;41.00;;;;;1.26;100.00;98152.94;6280951;20;2873347;-47
2023/12/01 10:38:52;;;;;;;;;42.00;35.33;;;;;1.26;100.00;98146.78;6314118;20;2862774;-52
2023/12/01 10:41:22;;;;;;;;;45.33;41.00;;;;;1.38;100.00;98146.19;6314891;20;2859730;-45
2023/12/01 10:43:52;;;;;;;;;56.00;45.50;;;;;1.74;100.00;98143.50;6314088;20;2851331;-49
2023/12/01 10:46:24;;;;;;;;;47.00;41.67;;;;;1.41;100.00;98145.19;6281550;20;2858702;-51
2023/12/01 10:48:55;;;;;;;;;52.00;43.00;;;;;1.42;100.00;98142.47;6313313;20;2865912;-50
2023/12/01 10:51:25;;;;;;;;;63.67;47.33;;;;;1.59;100.00;98144.25;6279194;20;3613295;-50
2023/12/01 10:53:56;;;;;;;;;52.50;43.00;;;;;1.35;100.00;98153.41;6280211;20;2864852;-50
2023/12/01 10:56:32;;;;;;;;;65.00;47.67;;;;;1.36;100.00;98163.91;6279550;20;2884899;-52
2023/12/01 10:59:02;;;;;;;;;69.50;51.50;;;;;1.57;100.00;98166.44;6314569;20;2875305;-48
2023/12/01 11:01:32;;;;;;;;;56.00;40.33;;;;;1.89;100.00;98160.34;6280885;20;2883735;-48
2023/12/01 11:04:07;;;;;;;;;43.67;40.00;;;;;1.86;100.00;98146.44;6314995;20;2863852;-49
2023/12/01 11:07:18;;;;;;;;;45.50;33.50;;;;;1.58;100.00;98154.91;6312297;20;2862792;-49
2023/12/01 11:10:06;;;;;;;;;40.50;36.00;;;;;1.95;100.00;98162.72;6276724;20;2500517;-50
2023/12/01 11:13:35;;;;;;;;;29.00;27.50;;;;;1.66;100.00;98150.97;6279566;20;2844161;-50
2023/12/01 11:16:07;;;;;;;;;35.00;26.50;;;;;1.64;100.00;98149.31;6279153;20;2843219;-48